createdAt,value
2017-08-17T00:01:45.612Z,63.50
2017-08-17T00:03:47.314Z,63.40
2017-08-17T00:05:48.260Z,63.40
2017-08-17T00:07:49.209Z,63.80
2017-08-17T00:09:50.168Z,63.90
2017-08-17T00:11:51.859Z,64.00
2017-08-17T00:13:52.800Z,64.00
2017-08-17T00:15:53.752Z,64.30
2017-08-17T00:18:01.796Z,64.70
2017-08-17T00:20:03.486Z,64.60
2017-08-17T00:22:04.428Z,64.30
2017-08-17T00:24:05.432Z,64.00
2017-08-17T00:26:06.400Z,63.50
2017-08-17T00:28:07.353Z,63.30
2017-08-17T00:30:08.296Z,63.10
2017-08-17T00:32:09.235Z,63.40
2017-08-17T00:34:10.172Z,63.70
2017-08-17T00:36:11.136Z,63.80
2017-08-17T00:38:12.834Z,64.10
2017-08-17T00:40:13.773Z,64.00
2017-08-17T00:42:14.724Z,64.60
2017-08-17T00:44:15.652Z,66.00
2017-08-17T00:46:16.601Z,66.60
2017-08-17T00:48:17.541Z,66.30
2017-08-17T00:50:18.492Z,66.30
2017-08-17T00:52:19.442Z,67.20
2017-08-17T00:54:21.141Z,66.30
2017-08-17T00:56:22.097Z,66.30
2017-08-17T00:58:23.056Z,66.20
2017-08-17T01:00:24.764Z,66.60
2017-08-17T01:02:25.699Z,66.20
2017-08-17T01:04:26.664Z,66.10
2017-08-17T01:06:27.626Z,66.20
2017-08-17T01:08:29.325Z,66.00
2017-08-17T01:10:30.276Z,65.90
2017-08-17T01:12:31.213Z,66.30
2017-08-17T01:14:32.149Z,66.30
2017-08-17T01:16:33.084Z,65.90
2017-08-17T01:18:34.032Z,66.10
2017-08-17T01:20:35.054Z,66.50
2017-08-17T01:22:36.009Z,66.00
2017-08-17T01:24:36.940Z,66.20
2017-08-17T01:26:37.905Z,66.00
2017-08-17T01:28:39.601Z,66.10
2017-08-17T01:30:40.605Z,66.10
2017-08-17T01:32:41.570Z,66.10
2017-08-17T01:34:42.530Z,66.10
2017-08-17T01:36:43.488Z,66.20
2017-08-17T01:38:45.195Z,66.30
2017-08-17T01:40:46.156Z,66.30
2017-08-17T01:42:47.129Z,66.60
2017-08-17T01:44:48.076Z,66.50
2017-08-17T01:46:49.040Z,66.60
2017-08-17T01:48:50.034Z,66.80
2017-08-17T01:50:51.726Z,67.40
2017-08-17T01:52:52.673Z,67.40
2017-08-17T01:54:53.828Z,67.30
2017-08-17T01:56:54.760Z,67.30
2017-08-17T01:58:55.708Z,67.10
2017-08-17T02:00:56.698Z,67.20
2017-08-17T02:02:57.664Z,67.60
2017-08-17T02:04:58.608Z,68.30
2017-08-17T02:07:00.344Z,68.70
2017-08-17T02:09:01.283Z,67.90
2017-08-17T02:11:02.237Z,68.20
2017-08-17T02:13:03.208Z,68.10
2017-08-17T02:15:04.156Z,67.90
2017-08-17T02:17:05.105Z,68.20
2017-08-17T02:19:08.864Z,68.10
2017-08-17T02:21:09.792Z,67.90
2017-08-17T02:23:11.655Z,68.60
2017-08-17T02:25:13.340Z,68.20
2017-08-17T02:27:14.283Z,68.20
2017-08-17T02:29:15.238Z,68.00
2017-08-17T02:31:16.180Z,68.30
2017-08-17T02:33:17.116Z,67.80
2017-08-17T02:35:18.057Z,67.80
2017-08-17T02:37:18.997Z,67.70
2017-08-17T02:39:20.004Z,68.50
2017-08-17T02:41:20.941Z,67.70
2017-08-17T02:43:21.892Z,68.20
2017-08-17T02:45:22.840Z,67.70
2017-08-17T02:47:23.780Z,68.40
2017-08-17T02:49:24.712Z,67.70
2017-08-17T02:51:25.645Z,68.50
2017-08-17T02:53:26.580Z,68.70
2017-08-17T02:55:27.514Z,67.60
2017-08-17T02:57:28.459Z,68.10
2017-08-17T02:59:29.388Z,68.40
2017-08-17T03:01:30.332Z,67.90
2017-08-17T03:03:31.268Z,68.20
2017-08-17T03:05:32.208Z,67.80
2017-08-17T03:07:33.136Z,67.70
2017-08-17T03:09:34.072Z,67.70
2017-08-17T03:11:35.008Z,68.00
2017-08-17T03:13:35.941Z,68.10
2017-08-17T03:15:36.885Z,67.50
2017-08-17T03:17:37.820Z,67.90
2017-08-17T03:19:39.500Z,67.30
2017-08-17T03:21:40.444Z,67.80
2017-08-17T03:23:41.397Z,68.40
2017-08-17T03:25:42.370Z,68.10
2017-08-17T03:27:44.073Z,68.40
2017-08-17T03:29:45.004Z,68.30
2017-08-17T03:31:45.956Z,68.60
2017-08-17T03:33:46.918Z,68.60
2017-08-17T03:35:47.888Z,68.50
2017-08-17T03:37:49.557Z,68.50
2017-08-17T03:39:50.506Z,68.50
2017-08-17T03:41:51.452Z,68.60
2017-08-17T03:43:52.396Z,68.70
2017-08-17T03:45:53.340Z,68.70
2017-08-17T03:47:54.273Z,68.40
2017-08-17T03:49:55.228Z,68.80
2017-08-17T03:51:56.168Z,68.30
2017-08-17T03:53:57.100Z,68.80
2017-08-17T03:55:58.036Z,69.30
2017-08-17T03:57:58.976Z,68.80
2017-08-17T03:59:59.916Z,69.00
2017-08-17T04:02:00.861Z,69.10
2017-08-17T04:04:01.794Z,69.00
2017-08-17T04:06:02.740Z,69.10
2017-08-17T04:08:03.681Z,69.10
2017-08-17T04:10:04.609Z,69.20
2017-08-17T04:12:05.552Z,69.30
2017-08-17T04:14:06.485Z,69.20
2017-08-17T04:16:07.433Z,69.40
2017-08-17T04:18:08.361Z,69.70
2017-08-17T04:20:09.288Z,70.00
2017-08-17T04:22:10.229Z,69.80
2017-08-17T04:24:11.160Z,69.40
2017-08-17T04:26:12.107Z,69.40
2017-08-17T04:28:13.045Z,69.30
2017-08-17T04:30:13.972Z,69.10
2017-08-17T04:32:14.912Z,69.20
2017-08-17T04:34:15.856Z,69.60
2017-08-17T04:36:16.801Z,69.00
2017-08-17T04:38:17.736Z,69.20
2017-08-17T04:40:18.672Z,68.90
2017-08-17T04:42:19.607Z,69.40
2017-08-17T04:44:20.557Z,69.60
2017-08-17T04:46:21.492Z,68.80
2017-08-17T04:48:22.440Z,68.90
2017-08-17T04:50:23.381Z,68.90
2017-08-17T04:52:24.326Z,69.10
2017-08-17T04:54:26.031Z,69.70
2017-08-17T04:56:45.684Z,68.80
2017-08-17T04:58:46.629Z,68.50
2017-08-17T05:00:47.557Z,68.80
2017-08-17T05:02:48.492Z,68.50
2017-08-17T05:04:49.433Z,68.30
2017-08-17T05:06:50.369Z,68.60
2017-08-17T05:08:51.304Z,68.30
2017-08-17T05:10:52.229Z,68.30
2017-08-17T05:12:53.188Z,68.30
2017-08-17T05:14:54.132Z,68.10
2017-08-17T05:16:55.076Z,68.00
2017-08-17T05:18:56.015Z,68.30
2017-08-17T05:20:56.968Z,68.20
2017-08-17T05:22:57.918Z,68.00
2017-08-17T05:24:59.597Z,67.70
2017-08-17T05:27:00.528Z,67.70
2017-08-17T05:29:01.473Z,67.80
2017-08-17T05:31:02.673Z,68.70
2017-08-17T05:33:04.369Z,67.40
2017-08-17T05:35:05.312Z,67.20
2017-08-17T05:37:06.240Z,67.80
2017-08-17T05:39:07.189Z,67.60
2017-08-17T05:41:08.140Z,67.90
2017-08-17T05:43:09.092Z,68.00
2017-08-17T05:45:10.036Z,67.80
2017-08-17T05:47:11.260Z,68.40
2017-08-17T05:49:12.361Z,67.40
2017-08-17T05:51:13.312Z,68.00
2017-08-17T05:53:14.243Z,66.70
2017-08-17T05:55:15.188Z,66.80
2017-08-17T05:57:16.134Z,67.00
2017-08-17T05:59:17.069Z,66.60
2017-08-17T06:01:18.113Z,66.80
2017-08-17T06:03:19.056Z,66.80
2017-08-17T06:05:20.012Z,66.40
2017-08-17T06:07:21.680Z,67.10
2017-08-17T06:09:22.617Z,66.70
2017-08-17T06:11:23.572Z,66.70
2017-08-17T06:13:24.496Z,67.10
2017-08-17T06:15:25.445Z,67.90
2017-08-17T06:17:26.384Z,67.00
2017-08-17T06:19:27.316Z,67.50
2017-08-17T06:21:28.253Z,67.30
2017-08-17T06:23:29.188Z,66.80
2017-08-17T06:25:30.129Z,66.80
2017-08-17T06:27:31.072Z,66.20
2017-08-17T06:29:32.028Z,66.60
2017-08-17T06:31:32.959Z,66.70
2017-08-17T06:33:33.960Z,65.80
2017-08-17T06:35:34.881Z,66.00
2017-08-17T06:37:35.820Z,66.50
2017-08-17T06:39:36.761Z,65.30
2017-08-17T06:41:37.696Z,64.60
2017-08-17T06:43:38.687Z,64.20
2017-08-17T06:45:39.628Z,64.40
2017-08-17T06:47:40.595Z,63.90
2017-08-17T06:49:41.538Z,63.50
2017-08-17T06:51:42.528Z,63.10
2017-08-17T06:53:43.471Z,63.70
2017-08-17T06:55:45.168Z,63.30
2017-08-17T06:57:46.103Z,63.40
2017-08-17T06:59:47.074Z,62.80
2017-08-17T07:01:48.024Z,62.60
2017-08-17T07:03:48.967Z,61.50
2017-08-17T07:05:49.900Z,61.60
2017-08-17T07:07:50.997Z,60.90
2017-08-17T07:09:52.047Z,61.60
2017-08-17T07:11:52.980Z,61.10
2017-08-17T07:13:53.927Z,61.50
2017-08-17T07:15:54.856Z,60.40
2017-08-17T07:17:55.789Z,60.80
2017-08-17T07:19:56.719Z,60.90
2017-08-17T07:21:57.681Z,61.80
2017-08-17T07:23:58.619Z,59.80
2017-08-17T07:25:59.552Z,60.40
2017-08-17T07:28:00.487Z,61.40
2017-08-17T07:30:01.424Z,61.30
2017-08-17T07:32:02.364Z,59.60
2017-08-17T07:34:03.299Z,59.50
2017-08-17T07:36:05.179Z,60.50
2017-08-17T07:38:06.844Z,59.90
2017-08-17T07:40:07.783Z,59.90
2017-08-17T07:42:08.712Z,58.70
2017-08-17T07:44:09.644Z,59.60
2017-08-17T07:46:10.580Z,58.80
2017-08-17T07:48:11.537Z,58.40
2017-08-17T07:50:12.489Z,57.60
2017-08-17T07:52:13.668Z,57.80
2017-08-17T07:54:14.620Z,58.70
2017-08-17T07:56:15.553Z,57.80
2017-08-17T07:58:17.233Z,57.20
2017-08-17T08:00:18.177Z,57.30
2017-08-17T08:02:19.108Z,58.00
2017-08-17T08:04:20.052Z,56.20
2017-08-17T08:06:20.980Z,56.90
2017-08-17T08:08:22.030Z,56.30
2017-08-17T08:10:23.084Z,55.90
2017-08-17T08:12:24.015Z,55.60
2017-08-17T08:14:24.953Z,54.00
2017-08-17T08:16:25.915Z,53.50
2017-08-17T08:18:26.920Z,52.20
2017-08-17T08:20:27.988Z,51.00
2017-08-17T08:22:29.954Z,52.40
2017-08-17T08:24:30.898Z,52.20
2017-08-17T08:26:31.920Z,51.90
2017-08-17T08:28:33.597Z,52.40
2017-08-17T08:30:34.542Z,52.30
2017-08-17T08:32:35.477Z,52.50
2017-08-17T08:34:36.504Z,52.20
2017-08-17T08:36:37.629Z,51.60
2017-08-17T08:38:38.565Z,53.60
2017-08-17T08:40:40.240Z,52.70
2017-08-17T08:42:41.184Z,52.70
2017-08-17T08:44:42.121Z,52.70
2017-08-17T08:46:43.060Z,53.20
2017-08-17T08:48:44.003Z,52.00
2017-08-17T08:50:44.931Z,52.80
2017-08-17T08:52:46.157Z,51.70
2017-08-17T08:54:47.091Z,51.00
2017-08-17T08:56:48.039Z,49.60
2017-08-17T08:58:48.982Z,49.90
2017-08-17T09:00:49.914Z,50.10
2017-08-17T09:02:50.857Z,52.70
2017-08-17T09:04:51.800Z,50.40
2017-08-17T09:06:52.748Z,50.50
2017-08-17T09:08:53.672Z,50.80
2017-08-17T09:10:54.612Z,51.20
2017-08-17T09:12:55.640Z,50.40
2017-08-17T09:14:56.576Z,51.90
2017-08-17T09:16:57.528Z,52.00
2017-08-17T09:18:58.463Z,50.90
2017-08-17T09:20:59.429Z,50.40
2017-08-17T09:23:01.116Z,50.50
2017-08-17T09:25:02.052Z,50.20
2017-08-17T09:27:03.008Z,50.80
2017-08-17T09:29:03.940Z,50.70
2017-08-17T09:31:04.875Z,51.40
2017-08-17T09:33:05.821Z,51.50
2017-08-17T09:35:06.752Z,51.30
2017-08-17T09:37:07.691Z,50.70
2017-08-17T09:39:08.936Z,48.70
2017-08-17T09:41:09.868Z,49.80
2017-08-17T09:43:17.900Z,48.50
2017-08-17T09:45:18.828Z,49.10
2017-08-17T09:47:19.776Z,49.10
2017-08-17T09:49:21.456Z,50.70
2017-08-17T09:51:22.388Z,50.60
2017-08-17T09:53:23.332Z,49.20
2017-08-17T09:55:24.257Z,47.40
2017-08-17T09:57:25.191Z,45.10
2017-08-17T09:59:26.133Z,47.00
2017-08-17T10:01:27.076Z,44.90
2017-08-17T10:03:28.016Z,43.80
2017-08-17T10:05:28.953Z,46.10
2017-08-17T10:07:29.882Z,46.70
2017-08-17T10:09:30.825Z,46.70
2017-08-17T10:11:31.749Z,46.00
2017-08-17T10:13:32.700Z,46.40
2017-08-17T10:15:33.630Z,45.20
2017-08-17T10:17:34.556Z,45.70
2017-08-17T10:19:35.489Z,46.10
2017-08-17T10:21:36.454Z,44.00
2017-08-17T10:23:37.401Z,44.10
2017-08-17T10:25:38.380Z,46.80
2017-08-17T10:27:39.325Z,46.80
2017-08-17T10:29:40.265Z,47.00
2017-08-17T10:31:41.203Z,48.20
2017-08-17T10:33:42.137Z,47.20
2017-08-17T10:35:43.084Z,46.90
2017-08-17T10:37:44.022Z,44.70
2017-08-17T10:39:44.957Z,46.80
2017-08-17T10:41:45.880Z,46.50
2017-08-17T10:43:46.817Z,45.50
2017-08-17T10:45:47.751Z,45.50
2017-08-17T10:47:48.692Z,44.60
2017-08-17T10:49:49.620Z,44.40
2017-08-17T10:51:50.549Z,45.60
2017-08-17T10:53:51.481Z,44.00
2017-08-17T10:55:52.417Z,45.20
2017-08-17T10:57:53.352Z,43.00
2017-08-17T10:59:54.380Z,42.80
2017-08-17T11:01:55.380Z,42.80
2017-08-17T11:03:56.340Z,43.40
2017-08-17T11:05:58.064Z,42.00
2017-08-17T11:07:58.997Z,41.80
2017-08-17T11:09:59.932Z,42.40
2017-08-17T11:12:00.888Z,43.30
2017-08-17T11:14:01.815Z,41.90
2017-08-17T11:16:02.744Z,40.80
2017-08-17T11:18:03.670Z,41.80
2017-08-17T11:20:04.612Z,42.10
2017-08-17T11:22:05.560Z,40.80
2017-08-17T11:24:06.488Z,40.50
2017-08-17T11:26:07.419Z,38.90
2017-08-17T11:28:08.340Z,40.90
2017-08-17T11:30:09.279Z,39.10
2017-08-17T11:32:10.208Z,37.90
2017-08-17T11:34:11.151Z,39.30
2017-08-17T11:36:12.091Z,39.70
2017-08-17T11:38:13.071Z,40.00
2017-08-17T11:40:14.040Z,38.20
2017-08-17T11:42:14.980Z,39.70
2017-08-17T11:44:15.904Z,40.50
2017-08-17T11:46:16.852Z,40.50
2017-08-17T11:48:17.808Z,40.90
2017-08-17T11:50:18.744Z,40.90
2017-08-17T11:52:19.686Z,41.90
2017-08-17T11:54:20.617Z,41.30
2017-08-17T11:56:21.631Z,43.10
2017-08-17T11:58:22.554Z,42.00
2017-08-17T12:00:23.496Z,41.50
2017-08-17T12:02:24.437Z,41.50
2017-08-17T12:04:25.377Z,41.70
2017-08-17T12:06:26.312Z,42.80
2017-08-17T12:08:27.245Z,42.00
2017-08-17T12:10:28.173Z,40.80
2017-08-17T12:12:29.112Z,41.50
2017-08-17T12:14:30.040Z,42.10
2017-08-17T12:16:30.973Z,41.20
2017-08-17T12:18:31.903Z,41.60
2017-08-17T12:20:32.877Z,42.20
2017-08-17T12:22:33.851Z,42.60
2017-08-17T12:24:34.780Z,41.90
2017-08-17T12:26:36.456Z,43.80
2017-08-17T12:28:37.402Z,43.70
2017-08-17T12:30:38.360Z,44.10
2017-08-17T12:32:39.280Z,42.80
2017-08-17T12:34:40.212Z,42.50
2017-08-17T12:36:41.145Z,43.40
2017-08-17T12:38:42.084Z,43.10
2017-08-17T12:40:43.021Z,43.20
2017-08-17T12:42:43.976Z,43.00
2017-08-17T12:44:44.909Z,44.00
2017-08-17T12:46:45.845Z,44.10
2017-08-17T12:48:46.794Z,43.80
2017-08-17T12:50:47.725Z,44.90
2017-08-17T12:52:48.668Z,44.40
2017-08-17T12:54:49.606Z,43.90
2017-08-17T12:56:50.536Z,43.00
2017-08-17T12:58:51.492Z,45.30
2017-08-17T13:00:53.168Z,43.10
2017-08-17T13:02:54.097Z,43.00
2017-08-17T13:04:55.028Z,43.20
2017-08-17T13:06:55.958Z,44.10
2017-08-17T13:08:57.616Z,45.20
2017-08-17T13:10:58.553Z,45.30
2017-08-17T13:12:59.484Z,44.00
2017-08-17T13:15:00.413Z,44.60
2017-08-17T13:17:01.332Z,45.50
2017-08-17T13:19:02.997Z,45.00
2017-08-17T13:21:04.676Z,47.00
2017-08-17T13:23:05.604Z,46.60
2017-08-17T13:25:06.564Z,47.70
2017-08-17T13:27:07.519Z,46.50
2017-08-17T13:29:08.448Z,46.40
2017-08-17T13:31:09.453Z,46.80
2017-08-17T13:33:10.376Z,47.40
2017-08-17T13:35:11.320Z,47.70
2017-08-17T13:37:12.264Z,49.50
2017-08-17T13:39:13.216Z,50.30
2017-08-17T13:41:14.152Z,52.20
2017-08-17T13:43:15.083Z,50.20
2017-08-17T13:45:16.033Z,50.10
2017-08-17T13:47:16.983Z,50.20
2017-08-17T13:49:17.920Z,48.90
2017-08-17T13:51:19.624Z,48.80
2017-08-17T13:53:20.549Z,48.80
2017-08-17T13:55:21.472Z,49.50
2017-08-17T13:57:23.169Z,49.40
2017-08-17T13:59:24.092Z,49.20
2017-08-17T14:01:25.024Z,50.30
2017-08-17T14:03:25.956Z,50.40
2017-08-17T14:05:26.888Z,51.00
2017-08-17T14:07:27.836Z,51.60
2017-08-17T14:09:28.776Z,50.80
2017-08-17T14:11:29.760Z,49.80
2017-08-17T14:13:31.433Z,50.90
2017-08-17T14:15:32.360Z,50.70
2017-08-17T14:17:34.036Z,51.40
2017-08-17T14:19:34.969Z,51.40
2017-08-17T14:21:35.916Z,50.90
2017-08-17T14:23:36.852Z,50.10
2017-08-17T14:25:37.804Z,51.80
2017-08-17T14:27:38.744Z,50.80
2017-08-17T14:29:39.673Z,50.10
2017-08-17T14:31:40.788Z,50.10
2017-08-17T14:33:41.724Z,50.20
2017-08-17T14:35:42.657Z,49.70
2017-08-17T14:37:43.589Z,51.80
2017-08-17T14:39:44.536Z,51.50
2017-08-17T14:41:45.461Z,51.70
2017-08-17T14:43:46.417Z,52.70
2017-08-17T14:45:47.365Z,51.80
2017-08-17T14:47:48.551Z,51.60
2017-08-17T14:49:50.292Z,51.40
2017-08-17T14:51:51.219Z,51.10
2017-08-17T14:53:52.177Z,52.40
2017-08-17T14:55:53.853Z,52.20
2017-08-17T14:57:54.792Z,52.20
2017-08-17T14:59:55.724Z,52.00
2017-08-17T15:01:56.665Z,52.20
2017-08-17T15:03:57.604Z,52.70
2017-08-17T15:05:58.532Z,52.60
2017-08-17T15:07:59.480Z,53.80
2017-08-17T15:10:00.433Z,54.10
2017-08-17T15:12:01.369Z,53.10
2017-08-17T15:14:02.304Z,54.10
2017-08-17T15:16:03.244Z,55.60
2017-08-17T15:18:04.193Z,55.00
2017-08-17T15:20:05.125Z,55.00
2017-08-17T15:22:06.097Z,55.60
2017-08-17T15:24:07.048Z,56.60
2017-08-17T15:26:07.985Z,56.40
2017-08-17T15:28:08.913Z,57.00
2017-08-17T15:30:09.856Z,57.70
2017-08-17T15:32:10.780Z,57.60
2017-08-17T15:34:11.807Z,59.00
2017-08-17T15:36:12.728Z,59.30
2017-08-17T15:38:14.397Z,60.20
2017-08-17T15:40:15.340Z,60.20
2017-08-17T15:42:16.277Z,60.10
2017-08-17T15:44:17.202Z,60.30
2017-08-17T15:46:18.138Z,60.10
2017-08-17T15:48:19.068Z,62.00
2017-08-17T15:50:20.220Z,64.80
2017-08-17T15:52:21.157Z,65.00
2017-08-17T15:54:22.088Z,65.20
2017-08-17T15:56:23.023Z,65.10
2017-08-17T15:58:23.953Z,65.10
2017-08-17T16:00:24.887Z,66.40
2017-08-17T16:02:25.830Z,67.60
2017-08-17T16:04:26.765Z,67.80
2017-08-17T16:06:27.701Z,67.60
2017-08-17T16:08:28.640Z,68.00
2017-08-17T16:10:29.601Z,70.00
2017-08-17T16:12:30.532Z,69.10
2017-08-17T16:14:31.466Z,69.60
2017-08-17T16:18:40.182Z,71.50
2017-08-17T16:20:41.127Z,71.90
2017-08-17T16:22:42.061Z,72.40
2017-08-17T16:24:43.001Z,72.30
2017-08-17T16:26:43.948Z,71.80
2017-08-17T16:28:44.877Z,72.70
2017-08-17T16:30:45.819Z,72.20
2017-08-17T16:32:46.760Z,72.10
2017-08-17T16:34:47.687Z,72.90
2017-08-17T16:36:48.632Z,72.70
2017-08-17T16:38:49.567Z,72.30
2017-08-17T16:40:50.497Z,72.40
2017-08-17T16:42:51.437Z,72.70
2017-08-17T16:44:52.393Z,72.50
2017-08-17T16:46:53.331Z,73.30
2017-08-17T16:48:55.300Z,73.60
2017-08-17T16:50:57.008Z,73.20
2017-08-17T16:52:57.937Z,73.20
2017-08-17T16:54:58.872Z,72.40
2017-08-17T16:57:28.673Z,73.40
2017-08-17T16:59:29.604Z,73.40
2017-08-17T17:01:30.548Z,73.40
2017-08-17T17:03:31.484Z,73.50
2017-08-17T17:05:32.425Z,74.00
2017-08-17T17:07:33.609Z,73.40
2017-08-17T17:09:34.543Z,73.70
2017-08-17T17:11:35.484Z,73.30
2017-08-17T17:13:37.179Z,74.10
2017-08-17T17:15:38.116Z,74.00
2017-08-17T17:17:39.052Z,74.20
2017-08-17T17:19:39.988Z,73.50
2017-08-17T17:21:40.918Z,73.80
2017-08-17T17:23:41.862Z,74.00
2017-08-17T17:25:42.800Z,74.40
2017-08-17T17:27:43.736Z,74.20
2017-08-17T17:29:44.676Z,74.20
2017-08-17T17:31:45.612Z,74.30
2017-08-17T17:33:46.551Z,74.90
2017-08-17T17:35:47.479Z,74.30
2017-08-17T17:37:48.416Z,74.30
2017-08-17T17:39:49.344Z,74.90
2017-08-17T17:41:50.281Z,74.20
2017-08-17T17:43:51.226Z,74.10
2017-08-17T17:45:52.183Z,74.40
2017-08-17T17:47:53.161Z,73.60
2017-08-17T17:49:54.100Z,73.90
2017-08-17T17:51:55.041Z,74.60
2017-08-17T17:53:56.035Z,74.70
2017-08-17T17:55:57.116Z,75.30
2017-08-17T17:57:58.048Z,74.80
2017-08-17T17:59:58.973Z,75.00
2017-08-17T18:02:00.033Z,75.00
2017-08-17T18:04:00.977Z,74.70
2017-08-17T18:06:01.912Z,74.60
2017-08-17T18:08:02.843Z,74.40
2017-08-17T18:10:03.789Z,73.70
2017-08-17T18:12:04.741Z,74.10
2017-08-17T18:14:05.677Z,74.50
2017-08-17T18:16:06.612Z,74.60
2017-08-17T18:18:07.585Z,74.00
2017-08-17T18:20:09.251Z,74.70
2017-08-17T18:22:10.200Z,74.70
2017-08-17T18:24:11.217Z,74.90
2017-08-17T18:26:12.156Z,75.00
2017-08-17T18:28:13.119Z,75.30
2017-08-17T18:30:14.068Z,75.90
2017-08-17T18:32:15.032Z,74.00
2017-08-17T18:34:16.093Z,74.40
2017-08-17T18:36:17.175Z,74.30
2017-08-17T18:38:18.217Z,73.50
2017-08-17T18:40:19.192Z,73.10
2017-08-17T18:42:20.868Z,74.70
2017-08-17T18:44:21.819Z,74.10
2017-08-17T18:46:22.774Z,74.40
2017-08-17T18:48:23.733Z,74.70
2017-08-17T18:50:24.684Z,74.80
2017-08-17T18:52:26.433Z,74.80
2017-08-17T18:54:27.375Z,74.80
2017-08-17T18:56:29.324Z,75.00
2017-08-17T18:58:30.256Z,75.00
2017-08-17T19:00:31.200Z,75.00
2017-08-17T19:02:32.132Z,75.10
2017-08-17T19:04:33.829Z,76.00
2017-08-17T19:06:34.772Z,75.30
2017-08-17T19:08:35.728Z,74.80
2017-08-17T19:10:36.843Z,75.20
2017-08-17T19:12:37.835Z,75.00
2017-08-17T19:14:38.772Z,74.70
2017-08-17T19:16:39.707Z,75.60
2017-08-17T19:18:41.386Z,75.30
2017-08-17T19:20:42.331Z,75.30
2017-08-17T19:22:43.272Z,75.50
2017-08-17T19:24:44.280Z,75.20
2017-08-17T19:26:47.153Z,75.20
2017-08-17T19:28:48.112Z,75.30
2017-08-17T19:30:49.104Z,75.60
2017-08-17T19:32:50.115Z,75.10
2017-08-17T19:34:51.152Z,74.40
2017-08-17T19:36:52.104Z,74.70
2017-08-17T19:38:53.264Z,74.50
2017-08-17T19:40:54.197Z,74.40
2017-08-17T19:42:55.137Z,74.50
2017-08-17T19:44:56.092Z,75.20
2017-08-17T19:46:57.044Z,74.40
2017-08-17T19:48:58.251Z,73.50
2017-08-17T19:51:00.040Z,74.00
2017-08-17T19:53:01.076Z,73.50
2017-08-17T19:55:02.301Z,73.30
2017-08-17T19:57:03.995Z,73.70
2017-08-17T19:59:04.932Z,73.60
2017-08-17T20:01:06.004Z,73.20
2017-08-17T20:03:06.935Z,72.40
2017-08-17T20:05:09.944Z,73.10
2017-08-17T20:07:11.816Z,73.40
2017-08-17T20:09:12.816Z,73.40
2017-08-17T20:11:13.756Z,73.30
2017-08-17T20:13:14.684Z,73.20
2017-08-17T20:15:15.829Z,73.50
2017-08-17T20:17:16.776Z,74.70
2017-08-17T20:19:17.717Z,73.60
2017-08-17T20:21:19.400Z,73.30
2017-08-17T20:23:20.336Z,73.30
2017-08-17T20:25:21.314Z,72.50
2017-08-17T20:27:22.249Z,72.50
2017-08-17T20:29:23.179Z,72.60
2017-08-17T20:31:24.112Z,72.50
2017-08-17T20:33:25.058Z,72.50
2017-08-17T20:35:26.005Z,71.80
2017-08-17T20:37:26.944Z,72.50
2017-08-17T20:39:28.608Z,72.20
2017-08-17T20:41:29.549Z,72.10
2017-08-17T20:43:30.476Z,71.50
2017-08-17T20:45:32.167Z,71.60
2017-08-17T20:47:33.120Z,71.50
2017-08-17T20:49:34.057Z,72.00
2017-08-17T20:51:34.993Z,72.50
2017-08-17T20:53:36.028Z,72.60
2017-08-17T20:55:36.977Z,73.10
2017-08-17T20:57:37.933Z,72.50
2017-08-17T20:59:39.600Z,73.30
2017-08-17T21:01:40.544Z,72.50
2017-08-17T21:03:41.469Z,72.00
2017-08-17T21:05:43.153Z,72.00
2017-08-17T21:07:44.086Z,72.00
2017-08-17T21:09:45.012Z,71.90
2017-08-17T21:11:45.960Z,72.20
2017-08-17T21:13:53.968Z,72.50
2017-08-17T21:15:54.901Z,73.00
2017-08-17T21:17:56.064Z,73.00
2017-08-17T21:19:57.000Z,72.50
2017-08-17T21:21:57.936Z,72.50
2017-08-17T21:23:58.884Z,72.70
2017-08-17T21:25:59.818Z,72.10
2017-08-17T21:28:00.752Z,72.50
2017-08-17T21:30:01.694Z,72.50
2017-08-17T21:32:02.632Z,71.40
2017-08-17T21:34:03.777Z,71.80
2017-08-17T21:36:04.705Z,72.00
2017-08-17T21:38:05.641Z,71.70
2017-08-17T21:40:06.574Z,70.80
2017-08-17T21:42:07.501Z,71.30
2017-08-17T21:44:08.443Z,71.80
2017-08-17T21:46:09.385Z,71.40
2017-08-17T21:48:10.340Z,70.50
2017-08-17T21:50:11.336Z,71.70
2017-08-17T21:52:12.272Z,70.70
2017-08-17T21:54:13.208Z,70.40
2017-08-17T21:56:14.144Z,71.10
2017-08-17T21:58:15.072Z,71.10
2017-08-17T22:00:16.022Z,70.50
2017-08-17T22:02:16.960Z,70.60
2017-08-17T22:04:17.888Z,71.20
2017-08-17T22:06:18.820Z,71.30
2017-08-17T22:08:19.756Z,72.30
2017-08-17T22:10:20.708Z,71.90
2017-08-17T22:12:21.636Z,72.30
2017-08-17T22:14:22.592Z,71.90
2017-08-17T22:16:23.529Z,72.30
2017-08-17T22:18:25.217Z,72.20
2017-08-17T22:20:26.160Z,72.20
2017-08-17T22:22:27.104Z,72.70
2017-08-17T22:24:28.083Z,72.50
2017-08-17T22:26:29.011Z,73.30
2017-08-17T22:28:29.936Z,72.90
2017-08-17T22:30:30.885Z,72.50
2017-08-17T22:32:31.824Z,72.10
2017-08-17T22:34:33.496Z,72.00
2017-08-17T22:36:34.424Z,72.00
2017-08-17T22:38:36.095Z,71.30
2017-08-17T22:40:37.040Z,71.20
2017-08-17T22:42:37.972Z,71.70
2017-08-17T22:44:38.900Z,72.00
2017-08-17T22:46:39.864Z,71.50
2017-08-17T22:48:40.800Z,71.40
2017-08-17T22:50:41.738Z,71.70
2017-08-17T22:52:42.676Z,71.40
2017-08-17T22:54:43.607Z,71.50
2017-08-17T22:56:44.557Z,71.60
2017-08-17T22:58:45.505Z,71.80
2017-08-17T23:00:46.441Z,71.90
2017-08-17T23:02:47.377Z,71.70
2017-08-17T23:04:48.311Z,71.00
2017-08-17T23:06:49.265Z,71.20
2017-08-17T23:08:50.183Z,71.90
2017-08-17T23:10:51.112Z,71.60
2017-08-17T23:12:52.067Z,72.30
2017-08-17T23:14:53.008Z,71.20
2017-08-17T23:16:54.685Z,71.40
2017-08-17T23:18:55.648Z,71.30
2017-08-17T23:20:56.575Z,71.00
2017-08-17T23:22:57.513Z,71.10
2017-08-17T23:24:58.452Z,71.10
2017-08-17T23:26:59.403Z,71.30
2017-08-17T23:29:00.340Z,71.40
2017-08-17T23:31:01.291Z,71.60
2017-08-17T23:33:02.229Z,71.20
2017-08-17T23:35:03.164Z,71.00
2017-08-17T23:37:04.848Z,72.40
2017-08-17T23:39:05.778Z,71.70
2017-08-17T23:41:06.709Z,71.60
2017-08-17T23:43:07.660Z,71.10
2017-08-17T23:45:08.587Z,72.20
2017-08-17T23:47:09.516Z,72.10
2017-08-17T23:49:10.459Z,71.40
2017-08-17T23:51:11.384Z,71.30
2017-08-17T23:53:12.316Z,71.40
2017-08-17T23:55:14.001Z,71.50
2017-08-17T23:57:14.929Z,71.40
2017-08-17T23:59:15.856Z,71.60
